sensor_id;sensor_type;location;lat;lon;timestamp;P1;durP1;ratioP1;P2;durP2;ratioP2
13319;SDS011;59599;47.608;12.190;2023-09-08T04:01:27;6.90;;;4.97;;
13319;SDS011;59599;47.608;12.190;2023-09-08T04:03:53;5.93;;;4.65;;
13319;SDS011;59599;47.608;12.190;2023-09-08T04:06:19;7.15;;;5.07;;
13319;SDS011;59599;47.608;12.190;2023-09-08T04:08:45;5.63;;;5.05;;
13319;SDS011;59599;47.608;12.190;2023-09-08T04:11:11;6.45;;;5.05;;
13319;SDS011;59599;47.608;12.190;2023-09-08T04:13:36;6.75;;;5.40;;
13319;SDS011;59599;47.608;12.190;2023-09-08T04:16:02;7.03;;;5.45;;
13319;SDS011;59599;47.608;12.190;2023-09-08T04:18:28;5.88;;;5.25;;
13319;SDS011;59599;47.608;12.190;2023-09-08T04:20:54;6.88;;;5.45;;
13319;SDS011;59599;47.608;12.190;2023-09-08T04:23:20;7.93;;;5.80;;
13319;SDS011;59599;47.608;12.190;2023-09-08T04:25:46;6.38;;;5.50;;
13319;SDS011;59599;47.608;12.190;2023-09-08T04:28:11;7.65;;;6.30;;
13319;SDS011;59599;47.608;12.190;2023-09-08T04:30:37;7.25;;;5.35;;
13319;SDS011;59599;47.608;12.190;2023-09-08T04:33:04;6.75;;;6.00;;
13319;SDS011;59599;47.608;12.190;2023-09-08T04:35:29;8.07;;;5.57;;
13319;SDS011;59599;47.608;12.190;2023-09-08T04:37:55;5.15;;;4.65;;
13319;SDS011;59599;47.608;12.190;2023-09-08T04:40:21;6.40;;;5.13;;
13319;SDS011;59599;47.608;12.190;2023-09-08T04:42:47;11.00;;;5.72;;
13319;SDS011;59599;47.608;12.190;2023-09-08T04:45:13;5.78;;;5.15;;
13319;SDS011;59599;47.608;12.190;2023-09-08T04:47:38;6.13;;;5.50;;
13319;SDS011;59599;47.608;12.190;2023-09-08T04:50:05;5.80;;;5.10;;
13319;SDS011;59599;47.608;12.190;2023-09-08T04:52:30;5.43;;;4.85;;
13319;SDS011;59599;47.608;12.190;2023-09-08T04:54:56;5.80;;;5.15;;
13319;SDS011;59599;47.608;12.190;2023-09-08T04:57:21;7.65;;;5.57;;
13319;SDS011;59599;47.608;12.190;2023-09-08T04:59:47;7.90;;;5.40;;
13319;SDS011;59599;47.608;12.190;2023-09-08T05:02:13;7.60;;;5.32;;
13319;SDS011;59599;47.608;12.190;2023-09-08T05:04:40;7.47;;;5.50;;
13319;SDS011;59599;47.608;12.190;2023-09-08T05:07:05;5.50;;;5.00;;
13319;SDS011;59599;47.608;12.190;2023-09-08T05:09:31;9.33;;;6.03;;
13319;SDS011;59599;47.608;12.190;2023-09-08T05:11:58;8.50;;;5.47;;
13319;SDS011;59599;47.608;12.190;2023-09-08T05:14:25;11.53;;;5.97;;
13319;SDS011;59599;47.608;12.190;2023-09-08T05:16:50;8.52;;;5.40;;
13319;SDS011;59599;47.608;12.190;2023-09-08T05:19:20;7.32;;;5.65;;
13319;SDS011;59599;47.608;12.190;2023-09-08T05:21:47;6.23;;;5.33;;
13319;SDS011;59599;47.608;12.190;2023-09-08T05:24:14;6.03;;;5.10;;
13319;SDS011;59599;47.608;12.190;2023-09-08T05:26:40;6.60;;;5.10;;
13319;SDS011;59599;47.608;12.190;2023-09-08T05:29:06;6.70;;;5.60;;
13319;SDS011;59599;47.608;12.190;2023-09-08T05:31:32;7.60;;;5.88;;
13319;SDS011;59599;47.608;12.190;2023-09-08T05:33:58;12.43;;;6.78;;
13319;SDS011;59599;47.608;12.190;2023-09-08T05:36:23;7.97;;;7.07;;
13319;SDS011;59599;47.608;12.190;2023-09-08T05:38:49;10.25;;;7.15;;
13319;SDS011;59599;47.608;12.190;2023-09-08T05:41:15;10.77;;;6.40;;
13319;SDS011;59599;47.608;12.190;2023-09-08T05:43:41;8.25;;;6.53;;
13319;SDS011;59599;47.608;12.190;2023-09-08T05:46:06;10.68;;;6.25;;
13319;SDS011;59599;47.608;12.190;2023-09-08T05:48:32;6.80;;;5.93;;
13319;SDS011;59599;47.608;12.190;2023-09-08T05:50:58;7.28;;;6.55;;
13319;SDS011;59599;47.608;12.190;2023-09-08T05:53:24;11.38;;;5.82;;
13319;SDS011;59599;47.608;12.190;2023-09-08T05:55:50;8.95;;;6.70;;
13319;SDS011;59599;47.608;12.190;2023-09-08T05:58:17;7.40;;;6.43;;
13319;SDS011;59599;47.608;12.190;2023-09-08T06:00:43;6.93;;;6.22;;
13319;SDS011;59599;47.608;12.190;2023-09-08T06:03:09;7.68;;;6.18;;
13319;SDS011;59599;47.608;12.190;2023-09-08T06:05:34;6.63;;;5.90;;
13319;SDS011;59599;47.608;12.190;2023-09-08T06:08:00;9.88;;;6.70;;
13319;SDS011;59599;47.608;12.190;2023-09-08T06:10:26;8.20;;;6.10;;
13319;SDS011;59599;47.608;12.190;2023-09-08T06:12:52;10.43;;;6.78;;
13319;SDS011;59599;47.608;12.190;2023-09-08T06:15:18;7.97;;;5.57;;
13319;SDS011;59599;47.608;12.190;2023-09-08T06:17:43;8.10;;;6.25;;
13319;SDS011;59599;47.608;12.190;2023-09-08T06:20:11;9.40;;;5.82;;
13319;SDS011;59599;47.608;12.190;2023-09-08T06:22:37;7.72;;;5.85;;
13319;SDS011;59599;47.608;12.190;2023-09-08T06:25:03;8.30;;;5.90;;
13319;SDS011;59599;47.608;12.190;2023-09-08T06:27:29;9.20;;;5.68;;
13319;SDS011;59599;47.608;12.190;2023-09-08T06:29:55;8.02;;;5.93;;
13319;SDS011;59599;47.608;12.190;2023-09-08T06:32:22;8.77;;;6.03;;
13319;SDS011;59599;47.608;12.190;2023-09-08T06:34:47;9.57;;;6.03;;
13319;SDS011;59599;47.608;12.190;2023-09-08T06:37:13;6.55;;;5.18;;
13319;SDS011;59599;47.608;12.190;2023-09-08T06:39:39;6.85;;;5.93;;
13319;SDS011;59599;47.608;12.190;2023-09-08T06:42:04;8.60;;;6.07;;
13319;SDS011;59599;47.608;12.190;2023-09-08T06:44:30;9.15;;;6.05;;
13319;SDS011;59599;47.608;12.190;2023-09-08T06:46:56;9.88;;;6.15;;
13319;SDS011;59599;47.608;12.190;2023-09-08T06:49:21;10.82;;;6.60;;
13319;SDS011;59599;47.608;12.190;2023-09-08T06:51:47;10.57;;;6.72;;
13319;SDS011;59599;47.608;12.190;2023-09-08T06:54:14;9.45;;;6.25;;
13319;SDS011;59599;47.608;12.190;2023-09-08T06:56:39;6.68;;;5.95;;
13319;SDS011;59599;47.608;12.190;2023-09-08T06:59:05;7.30;;;5.57;;
13319;SDS011;59599;47.608;12.190;2023-09-08T07:01:31;8.40;;;6.10;;
13319;SDS011;59599;47.608;12.190;2023-09-08T07:03:57;10.55;;;6.28;;
13319;SDS011;59599;47.608;12.190;2023-09-08T07:06:23;7.30;;;6.40;;
13319;SDS011;59599;47.608;12.190;2023-09-08T07:08:49;6.90;;;6.28;;
13319;SDS011;59599;47.608;12.190;2023-09-08T07:11:15;7.18;;;6.38;;
13319;SDS011;59599;47.608;12.190;2023-09-08T07:13:41;6.07;;;5.57;;
13319;SDS011;59599;47.608;12.190;2023-09-08T07:16:07;6.68;;;6.07;;
13319;SDS011;59599;47.608;12.190;2023-09-08T07:18:32;7.57;;;6.10;;
13319;SDS011;59599;47.608;12.190;2023-09-08T07:21:01;8.70;;;5.90;;
13319;SDS011;59599;47.608;12.190;2023-09-08T07:23:27;8.57;;;6.10;;
13319;SDS011;59599;47.608;12.190;2023-09-08T07:25:53;7.85;;;6.03;;
13319;SDS011;59599;47.608;12.190;2023-09-08T07:28:18;6.68;;;5.78;;
13319;SDS011;59599;47.608;12.190;2023-09-08T07:30:44;12.68;;;6.22;;
13319;SDS011;59599;47.608;12.190;2023-09-08T07:33:10;6.25;;;5.65;;
13319;SDS011;59599;47.608;12.190;2023-09-08T07:35:39;7.35;;;5.72;;
13319;SDS011;59599;47.608;12.190;2023-09-08T07:38:06;7.63;;;5.38;;
13319;SDS011;59599;47.608;12.190;2023-09-08T07:40:32;6.55;;;5.88;;
13319;SDS011;59599;47.608;12.190;2023-09-08T07:42:58;9.20;;;6.07;;
13319;SDS011;59599;47.608;12.190;2023-09-08T07:45:24;5.72;;;5.05;;
13319;SDS011;59599;47.608;12.190;2023-09-08T07:47:50;7.43;;;6.05;;
13319;SDS011;59599;47.608;12.190;2023-09-08T07:50:21;8.93;;;5.50;;
13319;SDS011;59599;47.608;12.190;2023-09-08T07:52:51;5.80;;;5.30;;
13319;SDS011;59599;47.608;12.190;2023-09-08T07:55:18;6.05;;;5.20;;
13319;SDS011;59599;47.608;12.190;2023-09-08T07:57:44;7.15;;;4.93;;
13319;SDS011;59599;47.608;12.190;2023-09-08T08:00:13;5.55;;;5.05;;
13319;SDS011;59599;47.608;12.190;2023-09-08T08:02:42;6.60;;;5.32;;
13319;SDS011;59599;47.608;12.190;2023-09-08T08:05:12;5.90;;;4.75;;
13319;SDS011;59599;47.608;12.190;2023-09-08T08:07:38;6.85;;;5.38;;
13319;SDS011;59599;47.608;12.190;2023-09-08T08:10:04;8.90;;;5.25;;
13319;SDS011;59599;47.608;12.190;2023-09-08T08:12:30;5.53;;;5.03;;
13319;SDS011;59599;47.608;12.190;2023-09-08T08:14:56;6.18;;;5.20;;
13319;SDS011;59599;47.608;12.190;2023-09-08T08:17:23;5.22;;;4.70;;
13319;SDS011;59599;47.608;12.190;2023-09-08T08:19:49;5.72;;;5.10;;
13319;SDS011;59599;47.608;12.190;2023-09-08T08:22:15;6.10;;;4.97;;
13319;SDS011;59599;47.608;12.190;2023-09-08T08:24:41;6.25;;;5.20;;
13319;SDS011;59599;47.608;12.190;2023-09-08T08:27:07;5.93;;;5.07;;
13319;SDS011;59599;47.608;12.190;2023-09-08T08:29:33;6.00;;;5.13;;
13319;SDS011;59599;47.608;12.190;2023-09-08T08:31:59;16.35;;;5.65;;
13319;SDS011;59599;47.608;12.190;2023-09-08T08:34:25;5.80;;;5.20;;
13319;SDS011;59599;47.608;12.190;2023-09-08T08:36:51;5.53;;;4.93;;
13319;SDS011;59599;47.608;12.190;2023-09-08T08:39:17;6.75;;;5.55;;
13319;SDS011;59599;47.608;12.190;2023-09-08T08:41:43;5.82;;;5.25;;
13319;SDS011;59599;47.608;12.190;2023-09-08T08:44:09;9.82;;;4.70;;
13319;SDS011;59599;47.608;12.190;2023-09-08T08:46:36;5.82;;;5.13;;
13319;SDS011;59599;47.608;12.190;2023-09-08T08:49:05;5.40;;;4.90;;
13319;SDS011;59599;47.608;12.190;2023-09-08T08:51:31;7.57;;;5.05;;
13319;SDS011;59599;47.608;12.190;2023-09-08T08:53:57;7.22;;;5.10;;
13319;SDS011;59599;47.608;12.190;2023-09-08T08:56:25;7.28;;;5.20;;
13319;SDS011;59599;47.608;12.190;2023-09-08T08:58:51;7.72;;;5.55;;
13319;SDS011;59599;47.608;12.190;2023-09-08T09:01:17;6.60;;;5.57;;
13319;SDS011;59599;47.608;12.190;2023-09-08T09:03:47;6.00;;;5.25;;
13319;SDS011;59599;47.608;12.190;2023-09-08T09:06:15;7.28;;;5.18;;
13319;SDS011;59599;47.608;12.190;2023-09-08T09:08:44;5.75;;;5.25;;
13319;SDS011;59599;47.608;12.190;2023-09-08T09:11:10;5.70;;;5.15;;
13319;SDS011;59599;47.608;12.190;2023-09-08T09:13:37;6.00;;;4.97;;
13319;SDS011;59599;47.608;12.190;2023-09-08T09:16:02;5.03;;;4.57;;
13319;SDS011;59599;47.608;12.190;2023-09-08T09:18:29;5.50;;;5.00;;
13319;SDS011;59599;47.608;12.190;2023-09-08T09:20:59;5.47;;;4.95;;
13319;SDS011;59599;47.608;12.190;2023-09-08T09:23:32;5.38;;;4.88;;
13319;SDS011;59599;47.608;12.190;2023-09-08T09:25:59;8.13;;;5.80;;
13319;SDS011;59599;47.608;12.190;2023-09-08T09:28:26;6.97;;;5.10;;
13319;SDS011;59599;47.608;12.190;2023-09-08T09:30:53;9.02;;;5.10;;
13319;SDS011;59599;47.608;12.190;2023-09-08T09:33:19;6.70;;;4.55;;
13319;SDS011;59599;47.608;12.190;2023-09-08T09:38:11;9.27;;;5.28;;
13319;SDS011;59599;47.608;12.190;2023-09-08T09:40:37;6.35;;;5.30;;
13319;SDS011;59599;47.608;12.190;2023-09-08T09:43:04;6.72;;;4.90;;
13319;SDS011;59599;47.608;12.190;2023-09-08T09:45:30;5.93;;;5.40;;
13319;SDS011;59599;47.608;12.190;2023-09-08T09:47:57;6.10;;;5.50;;
13319;SDS011;59599;47.608;12.190;2023-09-08T09:50:30;5.85;;;5.35;;
13319;SDS011;59599;47.608;12.190;2023-09-08T09:52:59;6.07;;;5.47;;
13319;SDS011;59599;47.608;12.190;2023-09-08T09:55:26;10.00;;;5.50;;
13319;SDS011;59599;47.608;12.190;2023-09-08T09:57:55;8.77;;;5.80;;
13319;SDS011;59599;47.608;12.190;2023-09-08T10:00:28;5.47;;;4.97;;
13319;SDS011;59599;47.608;12.190;2023-09-08T10:02:55;5.90;;;5.35;;
13319;SDS011;59599;47.608;12.190;2023-09-08T10:05:21;5.40;;;4.90;;
13319;SDS011;59599;47.608;12.190;2023-09-08T10:07:47;5.65;;;4.93;;
13319;SDS011;59599;47.608;12.190;2023-09-08T10:10:13;4.78;;;4.38;;
13319;SDS011;59599;47.608;12.190;2023-09-08T10:12:41;5.72;;;5.22;;
13319;SDS011;59599;47.608;12.190;2023-09-08T10:15:10;5.13;;;4.63;;
13319;SDS011;59599;47.608;12.190;2023-09-08T10:17:37;5.40;;;4.90;;
13319;SDS011;59599;47.608;12.190;2023-09-08T10:20:03;7.45;;;5.47;;
13319;SDS011;59599;47.608;12.190;2023-09-08T10:22:36;6.70;;;5.10;;
13319;SDS011;59599;47.608;12.190;2023-09-08T10:25:08;9.30;;;4.93;;
13319;SDS011;59599;47.608;12.190;2023-09-08T10:27:34;8.32;;;5.30;;
13319;SDS011;59599;47.608;12.190;2023-09-08T10:30:01;7.70;;;5.60;;
13319;SDS011;59599;47.608;12.190;2023-09-08T10:32:29;5.53;;;4.68;;
13319;SDS011;59599;47.608;12.190;2023-09-08T10:34:57;6.13;;;4.63;;
13319;SDS011;59599;47.608;12.190;2023-09-08T10:37:25;6.15;;;4.90;;
13319;SDS011;59599;47.608;12.190;2023-09-08T10:39:54;6.53;;;5.25;;
13319;SDS011;59599;47.608;12.190;2023-09-08T10:42:45;6.50;;;4.90;;
13319;SDS011;59599;47.608;12.190;2023-09-08T10:45:15;5.85;;;4.95;;
13319;SDS011;59599;47.608;12.190;2023-09-08T10:50:17;5.35;;;4.85;;
13319;SDS011;59599;47.608;12.190;2023-09-08T10:52:43;5.25;;;4.63;;
13319;SDS011;59599;47.608;12.190;2023-09-08T10:55:11;8.10;;;4.50;;
13319;SDS011;59599;47.608;12.190;2023-09-08T10:57:38;4.68;;;4.20;;
13319;SDS011;59599;47.608;12.190;2023-09-08T11:00:10;4.65;;;4.25;;
13319;SDS011;59599;47.608;12.190;2023-09-08T11:05:06;5.30;;;4.80;;
13319;SDS011;59599;47.608;12.190;2023-09-08T11:07:38;6.35;;;4.88;;
13319;SDS011;59599;47.608;12.190;2023-09-08T11:10:05;5.18;;;4.70;;
13319;SDS011;59599;47.608;12.190;2023-09-08T11:12:32;6.78;;;5.00;;
13319;SDS011;59599;47.608;12.190;2023-09-08T11:14:58;7.18;;;4.93;;
13319;SDS011;59599;47.608;12.190;2023-09-08T11:17:30;5.15;;;4.65;;
13319;SDS011;59599;47.608;12.190;2023-09-08T11:19:56;5.45;;;4.95;;
13319;SDS011;59599;47.608;12.190;2023-09-08T11:22:22;5.13;;;4.55;;
13319;SDS011;59599;47.608;12.190;2023-09-08T11:24:49;6.28;;;4.75;;
13319;SDS011;59599;47.608;12.190;2023-09-08T11:27:17;5.28;;;4.75;;
13319;SDS011;59599;47.608;12.190;2023-09-08T11:29:43;6.55;;;5.03;;
13319;SDS011;59599;47.608;12.190;2023-09-08T11:32:09;4.72;;;4.25;;
13319;SDS011;59599;47.608;12.190;2023-09-08T11:34:36;4.97;;;4.55;;
13319;SDS011;59599;47.608;12.190;2023-09-08T11:37:22;5.78;;;4.70;;
13319;SDS011;59599;47.608;12.190;2023-09-08T11:39:47;7.25;;;4.95;;
13319;SDS011;59599;47.608;12.190;2023-09-08T11:42:14;5.35;;;4.47;;
13319;SDS011;59599;47.608;12.190;2023-09-08T11:44:41;5.20;;;4.70;;
13319;SDS011;59599;47.608;12.190;2023-09-08T11:47:08;5.32;;;4.82;;
13319;SDS011;59599;47.608;12.190;2023-09-08T11:49:37;6.07;;;5.47;;
13319;SDS011;59599;47.608;12.190;2023-09-08T11:52:07;7.22;;;5.18;;
13319;SDS011;59599;47.608;12.190;2023-09-08T11:54:33;5.75;;;4.70;;
13319;SDS011;59599;47.608;12.190;2023-09-08T11:57:00;5.20;;;4.68;;
13319;SDS011;59599;47.608;12.190;2023-09-08T11:59:30;6.80;;;4.88;;
13319;SDS011;59599;47.608;12.190;2023-09-08T12:01:57;5.35;;;4.85;;
13319;SDS011;59599;47.608;12.190;2023-09-08T12:04:24;5.57;;;4.75;;
13319;SDS011;59599;47.608;12.190;2023-09-08T12:06:51;5.00;;;4.50;;
13319;SDS011;59599;47.608;12.190;2023-09-08T12:09:17;7.90;;;5.00;;
13319;SDS011;59599;47.608;12.190;2023-09-08T12:11:43;6.28;;;5.10;;
13319;SDS011;59599;47.608;12.190;2023-09-08T12:14:12;5.43;;;4.82;;
13319;SDS011;59599;47.608;12.190;2023-09-08T12:16:39;5.57;;;4.93;;
13319;SDS011;59599;47.608;12.190;2023-09-08T12:19:06;4.63;;;4.22;;
13319;SDS011;59599;47.608;12.190;2023-09-08T12:21:53;7.40;;;5.20;;
13319;SDS011;59599;47.608;12.190;2023-09-08T12:27:13;5.45;;;4.97;;
13319;SDS011;59599;47.608;12.190;2023-09-08T12:29:41;5.45;;;4.95;;
13319;SDS011;59599;47.608;12.190;2023-09-08T12:32:06;6.97;;;4.93;;
13319;SDS011;59599;47.608;12.190;2023-09-08T12:34:32;5.90;;;4.75;;
13319;SDS011;59599;47.608;12.190;2023-09-08T12:36:59;8.63;;;4.90;;
13319;SDS011;59599;47.608;12.190;2023-09-08T12:39:25;7.38;;;5.28;;
13319;SDS011;59599;47.608;12.190;2023-09-08T12:41:50;6.35;;;4.75;;
13319;SDS011;59599;47.608;12.190;2023-09-08T12:44:16;6.43;;;4.65;;
13319;SDS011;59599;47.608;12.190;2023-09-08T12:46:41;9.82;;;5.57;;
13319;SDS011;59599;47.608;12.190;2023-09-08T12:49:07;9.40;;;5.35;;
13319;SDS011;59599;47.608;12.190;2023-09-08T12:51:33;5.28;;;4.47;;
13319;SDS011;59599;47.608;12.190;2023-09-08T12:53:59;5.18;;;4.72;;
13319;SDS011;59599;47.608;12.190;2023-09-08T12:56:24;7.30;;;5.15;;
13319;SDS011;59599;47.608;12.190;2023-09-08T12:58:50;4.95;;;4.32;;
13319;SDS011;59599;47.608;12.190;2023-09-08T13:01:16;10.10;;;5.55;;
13319;SDS011;59599;47.608;12.190;2023-09-08T13:03:42;5.07;;;4.68;;
13319;SDS011;59599;47.608;12.190;2023-09-08T13:06:08;6.35;;;4.80;;
13319;SDS011;59599;47.608;12.190;2023-09-08T13:08:34;7.07;;;4.82;;
13319;SDS011;59599;47.608;12.190;2023-09-08T13:11:00;6.13;;;4.82;;
13319;SDS011;59599;47.608;12.190;2023-09-08T13:13:25;5.32;;;4.85;;
13319;SDS011;59599;47.608;12.190;2023-09-08T13:15:53;10.82;;;5.25;;
13319;SDS011;59599;47.608;12.190;2023-09-08T13:18:18;7.18;;;5.38;;
13319;SDS011;59599;47.608;12.190;2023-09-08T13:20:44;5.03;;;4.53;;
13319;SDS011;59599;47.608;12.190;2023-09-08T13:23:10;6.25;;;4.70;;
13319;SDS011;59599;47.608;12.190;2023-09-08T13:25:36;5.15;;;4.45;;
13319;SDS011;59599;47.608;12.190;2023-09-08T13:28:01;4.90;;;4.38;;
13319;SDS011;59599;47.608;12.190;2023-09-08T13:30:27;6.78;;;4.20;;
13319;SDS011;59599;47.608;12.190;2023-09-08T13:32:53;4.53;;;4.13;;
13319;SDS011;59599;47.608;12.190;2023-09-08T13:35:20;7.88;;;4.60;;
13319;SDS011;59599;47.608;12.190;2023-09-08T13:37:46;4.90;;;4.40;;
13319;SDS011;59599;47.608;12.190;2023-09-08T13:40:12;7.63;;;3.97;;
13319;SDS011;59599;47.608;12.190;2023-09-08T13:42:39;4.60;;;3.90;;
13319;SDS011;59599;47.608;12.190;2023-09-08T13:45:05;5.07;;;4.00;;
13319;SDS011;59599;47.608;12.190;2023-09-08T13:47:31;6.75;;;4.80;;
13319;SDS011;59599;47.608;12.190;2023-09-08T13:49:57;5.00;;;4.47;;
13319;SDS011;59599;47.608;12.190;2023-09-08T13:52:23;6.03;;;4.50;;
13319;SDS011;59599;47.608;12.190;2023-09-08T13:54:49;6.22;;;4.50;;
13319;SDS011;59599;47.608;12.190;2023-09-08T13:57:15;5.13;;;4.38;;
13319;SDS011;59599;47.608;12.190;2023-09-08T13:59:41;4.60;;;4.20;;
13319;SDS011;59599;47.608;12.190;2023-09-08T14:02:06;6.60;;;4.60;;
13319;SDS011;59599;47.608;12.190;2023-09-08T14:04:32;5.22;;;4.68;;
13319;SDS011;59599;47.608;12.190;2023-09-08T14:06:57;7.53;;;4.63;;
13319;SDS011;59599;47.608;12.190;2023-09-08T14:09:23;5.72;;;4.88;;
13319;SDS011;59599;47.608;12.190;2023-09-08T14:11:51;5.47;;;4.55;;
13319;SDS011;59599;47.608;12.190;2023-09-08T14:14:16;6.15;;;4.80;;
13319;SDS011;59599;47.608;12.190;2023-09-08T14:16:42;6.60;;;4.80;;
13319;SDS011;59599;47.608;12.190;2023-09-08T14:19:07;4.85;;;4.32;;
13319;SDS011;59599;47.608;12.190;2023-09-08T14:21:33;5.43;;;4.93;;
13319;SDS011;59599;47.608;12.190;2023-09-08T14:23:59;6.05;;;4.18;;
13319;SDS011;59599;47.608;12.190;2023-09-08T14:26:25;5.43;;;4.38;;
13319;SDS011;59599;47.608;12.190;2023-09-08T14:28:51;4.53;;;4.13;;
13319;SDS011;59599;47.608;12.190;2023-09-08T14:31:18;5.10;;;4.60;;
13319;SDS011;59599;47.608;12.190;2023-09-08T14:33:43;5.05;;;4.55;;
13319;SDS011;59599;47.608;12.190;2023-09-08T14:36:09;4.90;;;4.50;;
13319;SDS011;59599;47.608;12.190;2023-09-08T14:38:35;7.68;;;4.65;;
13319;SDS011;59599;47.608;12.190;2023-09-08T14:41:01;4.60;;;4.20;;
13319;SDS011;59599;47.608;12.190;2023-09-08T14:43:27;5.35;;;4.63;;
13319;SDS011;59599;47.608;12.190;2023-09-08T14:45:54;4.90;;;4.40;;
13319;SDS011;59599;47.608;12.190;2023-09-08T14:48:22;9.23;;;4.88;;
13319;SDS011;59599;47.608;12.190;2023-09-08T14:50:48;5.22;;;4.45;;
13319;SDS011;59599;47.608;12.190;2023-09-08T14:53:14;4.72;;;4.32;;
13319;SDS011;59599;47.608;12.190;2023-09-08T14:55:40;5.35;;;4.60;;
13319;SDS011;59599;47.608;12.190;2023-09-08T14:58:08;6.30;;;4.55;;
13319;SDS011;59599;47.608;12.190;2023-09-08T15:00:35;5.05;;;4.55;;
13319;SDS011;59599;47.608;12.190;2023-09-08T15:03:01;6.35;;;5.05;;
13319;SDS011;59599;47.608;12.190;2023-09-08T15:05:29;6.80;;;5.35;;
13319;SDS011;59599;47.608;12.190;2023-09-08T15:07:55;7.10;;;5.00;;
13319;SDS011;59599;47.608;12.190;2023-09-08T15:10:21;7.13;;;4.47;;
13319;SDS011;59599;47.608;12.190;2023-09-08T15:12:47;6.32;;;4.68;;
13319;SDS011;59599;47.608;12.190;2023-09-08T15:15:13;7.13;;;4.47;;
13319;SDS011;59599;47.608;12.190;2023-09-08T15:17:39;5.38;;;4.82;;
13319;SDS011;59599;47.608;12.190;2023-09-08T15:20:04;5.30;;;4.80;;
13319;SDS011;59599;47.608;12.190;2023-09-08T15:22:30;8.65;;;5.00;;
13319;SDS011;59599;47.608;12.190;2023-09-08T15:24:56;7.45;;;4.95;;
13319;SDS011;59599;47.608;12.190;2023-09-08T15:27:22;5.75;;;4.53;;
13319;SDS011;59599;47.608;12.190;2023-09-08T15:29:48;6.72;;;4.82;;
13319;SDS011;59599;47.608;12.190;2023-09-08T15:32:14;6.53;;;5.05;;
13319;SDS011;59599;47.608;12.190;2023-09-08T15:34:40;5.40;;;4.90;;
13319;SDS011;59599;47.608;12.190;2023-09-08T15:37:05;9.05;;;4.47;;
13319;SDS011;59599;47.608;12.190;2023-09-08T15:39:31;4.80;;;4.38;;
13319;SDS011;59599;47.608;12.190;2023-09-08T15:41:57;5.60;;;4.40;;
13319;SDS011;59599;47.608;12.190;2023-09-08T15:44:23;6.20;;;5.07;;
13319;SDS011;59599;47.608;12.190;2023-09-08T15:46:49;8.30;;;4.72;;
13319;SDS011;59599;47.608;12.190;2023-09-08T15:49:14;5.00;;;4.60;;
13319;SDS011;59599;47.608;12.190;2023-09-08T15:51:40;5.28;;;4.75;;
13319;SDS011;59599;47.608;12.190;2023-09-08T15:54:06;4.68;;;4.28;;
13319;SDS011;59599;47.608;12.190;2023-09-08T15:56:31;6.13;;;4.50;;
13319;SDS011;59599;47.608;12.190;2023-09-08T15:58:57;5.70;;;4.55;;
13319;SDS011;59599;47.608;12.190;2023-09-08T16:01:23;5.18;;;4.75;;
13319;SDS011;59599;47.608;12.190;2023-09-08T16:03:49;5.03;;;4.50;;
13319;SDS011;59599;47.608;12.190;2023-09-08T16:06:15;5.78;;;4.57;;
13319;SDS011;59599;47.608;12.190;2023-09-08T16:08:43;7.22;;;4.65;;
13319;SDS011;59599;47.608;12.190;2023-09-08T16:11:09;4.97;;;4.25;;
13319;SDS011;59599;47.608;12.190;2023-09-08T16:13:34;8.15;;;4.72;;
13319;SDS011;59599;47.608;12.190;2023-09-08T16:16:00;6.15;;;4.47;;
13319;SDS011;59599;47.608;12.190;2023-09-08T16:18:25;6.13;;;4.45;;
13319;SDS011;59599;47.608;12.190;2023-09-08T16:20:51;4.75;;;4.35;;
13319;SDS011;59599;47.608;12.190;2023-09-08T16:23:17;6.28;;;4.80;;
13319;SDS011;59599;47.608;12.190;2023-09-08T16:25:43;5.53;;;5.03;;
13319;SDS011;59599;47.608;12.190;2023-09-08T16:28:09;7.43;;;5.25;;
13319;SDS011;59599;47.608;12.190;2023-09-08T16:30:35;5.35;;;4.70;;
13319;SDS011;59599;47.608;12.190;2023-09-08T16:33:01;5.05;;;4.57;;
13319;SDS011;59599;47.608;12.190;2023-09-08T16:35:27;5.57;;;5.07;;
13319;SDS011;59599;47.608;12.190;2023-09-08T16:37:53;5.72;;;5.00;;
13319;SDS011;59599;47.608;12.190;2023-09-08T16:40:18;5.82;;;5.30;;
13319;SDS011;59599;47.608;12.190;2023-09-08T16:42:44;8.77;;;5.50;;
13319;SDS011;59599;47.608;12.190;2023-09-08T16:45:10;6.97;;;5.32;;
13319;SDS011;59599;47.608;12.190;2023-09-08T16:47:36;5.28;;;4.78;;
13319;SDS011;59599;47.608;12.190;2023-09-08T16:50:02;7.15;;;5.25;;
13319;SDS011;59599;47.608;12.190;2023-09-08T16:52:29;6.07;;;5.15;;
13319;SDS011;59599;47.608;12.190;2023-09-08T16:54:55;6.10;;;4.85;;
13319;SDS011;59599;47.608;12.190;2023-09-08T16:57:21;5.50;;;4.90;;
13319;SDS011;59599;47.608;12.190;2023-09-08T16:59:46;5.30;;;4.80;;
13319;SDS011;59599;47.608;12.190;2023-09-08T17:02:12;5.95;;;5.25;;
13319;SDS011;59599;47.608;12.190;2023-09-08T17:04:38;5.78;;;5.22;;
13319;SDS011;59599;47.608;12.190;2023-09-08T17:07:08;5.78;;;5.18;;
13319;SDS011;59599;47.608;12.190;2023-09-08T17:09:34;5.53;;;5.03;;
13319;SDS011;59599;47.608;12.190;2023-09-08T17:12:00;6.18;;;5.35;;
13319;SDS011;59599;47.608;12.190;2023-09-08T17:14:29;6.35;;;5.05;;
13319;SDS011;59599;47.608;12.190;2023-09-08T17:16:55;8.98;;;5.00;;
13319;SDS011;59599;47.608;12.190;2023-09-08T17:19:21;6.50;;;5.30;;
13319;SDS011;59599;47.608;12.190;2023-09-08T17:21:47;6.07;;;5.10;;
13319;SDS011;59599;47.608;12.190;2023-09-08T17:24:15;7.72;;;5.10;;
13319;SDS011;59599;47.608;12.190;2023-09-08T17:26:41;9.18;;;5.88;;
13319;SDS011;59599;47.608;12.190;2023-09-08T17:29:07;9.30;;;5.60;;
13319;SDS011;59599;47.608;12.190;2023-09-08T17:31:33;7.70;;;5.80;;
13319;SDS011;59599;47.608;12.190;2023-09-08T17:33:59;10.27;;;6.15;;
13319;SDS011;59599;47.608;12.190;2023-09-08T17:36:25;9.07;;;6.07;;
13319;SDS011;59599;47.608;12.190;2023-09-08T17:38:50;6.97;;;6.15;;
13319;SDS011;59599;47.608;12.190;2023-09-08T17:41:16;8.75;;;5.93;;
13319;SDS011;59599;47.608;12.190;2023-09-08T17:43:42;6.35;;;5.72;;
13319;SDS011;59599;47.608;12.190;2023-09-08T17:46:07;7.15;;;6.45;;
13319;SDS011;59599;47.608;12.190;2023-09-08T17:48:33;16.95;;;13.10;;
13319;SDS011;59599;47.608;12.190;2023-09-08T17:50:59;12.43;;;10.50;;
13319;SDS011;59599;47.608;12.190;2023-09-08T17:53:25;13.50;;;8.35;;
13319;SDS011;59599;47.608;12.190;2023-09-08T17:55:50;9.73;;;8.35;;
13319;SDS011;59599;47.608;12.190;2023-09-08T17:58:16;8.30;;;7.28;;
13319;SDS011;59599;47.608;12.190;2023-09-08T18:00:42;8.93;;;7.03;;
13319;SDS011;59599;47.608;12.190;2023-09-08T18:03:07;9.82;;;6.90;;
13319;SDS011;59599;47.608;12.190;2023-09-08T18:05:33;7.90;;;6.50;;
13319;SDS011;59599;47.608;12.190;2023-09-08T18:07:59;8.73;;;6.95;;
13319;SDS011;59599;47.608;12.190;2023-09-08T18:10:26;9.40;;;6.68;;
13319;SDS011;59599;47.608;12.190;2023-09-08T18:12:52;8.95;;;6.93;;
13319;SDS011;59599;47.608;12.190;2023-09-08T18:15:18;8.57;;;6.88;;
13319;SDS011;59599;47.608;12.190;2023-09-08T18:17:44;11.68;;;8.65;;
13319;SDS011;59599;47.608;12.190;2023-09-08T18:20:12;9.20;;;8.30;;
13319;SDS011;59599;47.608;12.190;2023-09-08T18:22:39;8.57;;;7.18;;
13319;SDS011;59599;47.608;12.190;2023-09-08T18:25:04;7.45;;;6.70;;
13319;SDS011;59599;47.608;12.190;2023-09-08T18:27:30;7.68;;;6.43;;
13319;SDS011;59599;47.608;12.190;2023-09-08T18:29:56;6.95;;;6.18;;
13319;SDS011;59599;47.608;12.190;2023-09-08T18:32:21;6.88;;;6.18;;
13319;SDS011;59599;47.608;12.190;2023-09-08T18:34:47;7.97;;;6.30;;
13319;SDS011;59599;47.608;12.190;2023-09-08T18:37:12;7.30;;;6.60;;
13319;SDS011;59599;47.608;12.190;2023-09-08T18:39:38;8.77;;;6.53;;